sensor_id;sensor_type;location;lat;lon;timestamp;P1;durP1;ratioP1;P2;durP2;ratioP2
4756;SDS011;2392;52.578;13.426;2022-09-09T00:01:12;8.87;;;8.07;;
4756;SDS011;2392;52.578;13.426;2022-09-09T00:03:48;9.33;;;8.50;;
4756;SDS011;2392;52.578;13.426;2022-09-09T00:06:21;9.87;;;8.87;;
4756;SDS011;2392;52.578;13.426;2022-09-09T00:08:56;9.43;;;8.63;;
4756;SDS011;2392;52.578;13.426;2022-09-09T00:11:29;8.20;;;7.50;;
4756;SDS011;2392;52.578;13.426;2022-09-09T00:14:03;8.80;;;7.90;;
4756;SDS011;2392;52.578;13.426;2022-09-09T00:16:38;8.93;;;8.13;;
4756;SDS011;2392;52.578;13.426;2022-09-09T00:19:12;9.53;;;8.73;;
4756;SDS011;2392;52.578;13.426;2022-09-09T00:21:47;8.90;;;8.00;;
4756;SDS011;2392;52.578;13.426;2022-09-09T00:24:22;9.00;;;8.20;;
4756;SDS011;2392;52.578;13.426;2022-09-09T00:26:55;9.00;;;8.20;;
4756;SDS011;2392;52.578;13.426;2022-09-09T00:29:28;11.53;;;7.83;;
4756;SDS011;2392;52.578;13.426;2022-09-09T00:32:09;8.60;;;7.70;;
4756;SDS011;2392;52.578;13.426;2022-09-09T00:34:39;11.63;;;9.90;;
4756;SDS011;2392;52.578;13.426;2022-09-09T00:37:15;8.80;;;8.00;;
4756;SDS011;2392;52.578;13.426;2022-09-09T00:39:42;8.40;;;7.80;;
4756;SDS011;2392;52.578;13.426;2022-09-09T00:42:13;12.80;;;8.17;;
4756;SDS011;2392;52.578;13.426;2022-09-09T00:44:50;9.23;;;8.43;;
4756;SDS011;2392;52.578;13.426;2022-09-09T00:47:28;8.83;;;8.00;;
4756;SDS011;2392;52.578;13.426;2022-09-09T00:50:08;9.37;;;8.57;;
4756;SDS011;2392;52.578;13.426;2022-09-09T00:52:44;11.77;;;9.57;;
4756;SDS011;2392;52.578;13.426;2022-09-09T00:55:19;9.90;;;9.00;;
4756;SDS011;2392;52.578;13.426;2022-09-09T00:57:51;9.50;;;8.50;;
4756;SDS011;2392;52.578;13.426;2022-09-09T01:00:22;10.67;;;8.90;;
4756;SDS011;2392;52.578;13.426;2022-09-09T01:05:44;9.70;;;8.70;;
4756;SDS011;2392;52.578;13.426;2022-09-09T01:08:20;9.30;;;8.40;;
4756;SDS011;2392;52.578;13.426;2022-09-09T01:11:07;14.20;;;9.67;;
4756;SDS011;2392;52.578;13.426;2022-09-09T01:13:41;9.20;;;8.30;;
4756;SDS011;2392;52.578;13.426;2022-09-09T01:16:12;11.03;;;8.90;;
4756;SDS011;2392;52.578;13.426;2022-09-09T01:18:43;8.80;;;8.00;;
4756;SDS011;2392;52.578;13.426;2022-09-09T01:21:15;8.80;;;8.10;;
4756;SDS011;2392;52.578;13.426;2022-09-09T01:23:55;13.90;;;9.03;;
4756;SDS011;2392;52.578;13.426;2022-09-09T01:26:50;10.40;;;9.40;;
4756;SDS011;2392;52.578;13.426;2022-09-09T01:29:24;9.40;;;8.60;;
4756;SDS011;2392;52.578;13.426;2022-09-09T01:31:52;11.23;;;8.30;;
4756;SDS011;2392;52.578;13.426;2022-09-09T01:34:21;9.73;;;8.50;;
4756;SDS011;2392;52.578;13.426;2022-09-09T01:36:52;11.17;;;10.10;;
4756;SDS011;2392;52.578;13.426;2022-09-09T01:39:24;10.13;;;9.20;;
4756;SDS011;2392;52.578;13.426;2022-09-09T01:42:00;10.63;;;9.53;;
4756;SDS011;2392;52.578;13.426;2022-09-09T01:44:28;11.07;;;9.70;;
4756;SDS011;2392;52.578;13.426;2022-09-09T01:46:57;10.50;;;9.53;;
4756;SDS011;2392;52.578;13.426;2022-09-09T01:49:23;14.43;;;9.13;;
4756;SDS011;2392;52.578;13.426;2022-09-09T01:51:51;10.30;;;9.30;;
4756;SDS011;2392;52.578;13.426;2022-09-09T01:54:26;10.47;;;9.50;;
4756;SDS011;2392;52.578;13.426;2022-09-09T01:57:00;9.97;;;9.07;;
4756;SDS011;2392;52.578;13.426;2022-09-09T01:59:38;11.10;;;9.27;;
4756;SDS011;2392;52.578;13.426;2022-09-09T02:02:16;10.60;;;9.70;;
4756;SDS011;2392;52.578;13.426;2022-09-09T02:04:56;12.13;;;10.93;;
4756;SDS011;2392;52.578;13.426;2022-09-09T02:07:35;11.33;;;10.23;;
4756;SDS011;2392;52.578;13.426;2022-09-09T02:10:17;9.10;;;8.30;;
4756;SDS011;2392;52.578;13.426;2022-09-09T02:12:59;10.80;;;9.70;;
4756;SDS011;2392;52.578;13.426;2022-09-09T02:15:32;10.13;;;9.23;;
4756;SDS011;2392;52.578;13.426;2022-09-09T02:18:06;11.63;;;8.63;;
4756;SDS011;2392;52.578;13.426;2022-09-09T02:20:36;15.70;;;10.17;;
4756;SDS011;2392;52.578;13.426;2022-09-09T02:23:04;11.00;;;9.90;;
4756;SDS011;2392;52.578;13.426;2022-09-09T02:25:34;10.17;;;9.17;;
4756;SDS011;2392;52.578;13.426;2022-09-09T02:28:15;9.20;;;8.30;;
4756;SDS011;2392;52.578;13.426;2022-09-09T02:30:44;9.83;;;8.67;;
4756;SDS011;2392;52.578;13.426;2022-09-09T02:33:15;10.73;;;9.63;;
4756;SDS011;2392;52.578;13.426;2022-09-09T02:35:46;11.20;;;9.77;;
4756;SDS011;2392;52.578;13.426;2022-09-09T02:38:17;9.70;;;8.70;;
4756;SDS011;2392;52.578;13.426;2022-09-09T02:40:56;8.97;;;8.20;;
4756;SDS011;2392;52.578;13.426;2022-09-09T02:43:25;10.50;;;8.77;;
4756;SDS011;2392;52.578;13.426;2022-09-09T02:45:53;8.97;;;8.20;;
4756;SDS011;2392;52.578;13.426;2022-09-09T02:48:30;13.33;;;8.63;;
4756;SDS011;2392;52.578;13.426;2022-09-09T02:51:05;9.63;;;8.70;;
4756;SDS011;2392;52.578;13.426;2022-09-09T02:53:39;14.80;;;9.73;;
4756;SDS011;2392;52.578;13.426;2022-09-09T02:56:11;9.50;;;8.63;;
4756;SDS011;2392;52.578;13.426;2022-09-09T02:58:44;9.40;;;8.40;;
4756;SDS011;2392;52.578;13.426;2022-09-09T03:01:11;12.10;;;9.07;;
4756;SDS011;2392;52.578;13.426;2022-09-09T03:03:39;9.40;;;8.40;;
4756;SDS011;2392;52.578;13.426;2022-09-09T03:06:10;8.67;;;7.97;;
4756;SDS011;2392;52.578;13.426;2022-09-09T03:08:38;8.57;;;7.80;;
4756;SDS011;2392;52.578;13.426;2022-09-09T03:11:05;9.27;;;8.47;;
4756;SDS011;2392;52.578;13.426;2022-09-09T03:13:35;10.10;;;9.10;;
4756;SDS011;2392;52.578;13.426;2022-09-09T03:16:05;10.03;;;9.13;;
4756;SDS011;2392;52.578;13.426;2022-09-09T03:18:38;8.50;;;7.70;;
4756;SDS011;2392;52.578;13.426;2022-09-09T03:21:05;11.40;;;7.70;;
4756;SDS011;2392;52.578;13.426;2022-09-09T03:23:33;9.10;;;8.20;;
4756;SDS011;2392;52.578;13.426;2022-09-09T03:26:02;9.43;;;8.60;;
4756;SDS011;2392;52.578;13.426;2022-09-09T03:28:38;13.53;;;8.83;;
4756;SDS011;2392;52.578;13.426;2022-09-09T03:31:06;10.80;;;9.80;;
4756;SDS011;2392;52.578;13.426;2022-09-09T03:33:37;9.10;;;8.20;;
4756;SDS011;2392;52.578;13.426;2022-09-09T03:36:06;11.80;;;10.60;;
4756;SDS011;2392;52.578;13.426;2022-09-09T03:38:35;12.30;;;11.10;;
4756;SDS011;2392;52.578;13.426;2022-09-09T03:41:01;12.03;;;10.77;;
4756;SDS011;2392;52.578;13.426;2022-09-09T03:43:32;14.50;;;11.47;;
4756;SDS011;2392;52.578;13.426;2022-09-09T03:45:59;11.70;;;10.60;;
4756;SDS011;2392;52.578;13.426;2022-09-09T03:48:29;12.27;;;11.07;;
4756;SDS011;2392;52.578;13.426;2022-09-09T03:50:57;11.40;;;9.97;;
4756;SDS011;2392;52.578;13.426;2022-09-09T03:53:27;12.80;;;10.10;;
4756;SDS011;2392;52.578;13.426;2022-09-09T03:55:55;10.67;;;9.67;;
4756;SDS011;2392;52.578;13.426;2022-09-09T03:58:26;11.03;;;9.13;;
4756;SDS011;2392;52.578;13.426;2022-09-09T04:00:59;14.80;;;9.33;;
4756;SDS011;2392;52.578;13.426;2022-09-09T04:06:08;9.53;;;8.70;;
4756;SDS011;2392;52.578;13.426;2022-09-09T04:08:38;9.07;;;8.20;;
4756;SDS011;2392;52.578;13.426;2022-09-09T04:11:06;10.13;;;9.00;;
4756;SDS011;2392;52.578;13.426;2022-09-09T04:13:36;10.20;;;8.10;;
4756;SDS011;2392;52.578;13.426;2022-09-09T04:16:05;12.60;;;7.37;;
4756;SDS011;2392;52.578;13.426;2022-09-09T04:18:35;9.93;;;7.60;;
4756;SDS011;2392;52.578;13.426;2022-09-09T04:21:02;12.57;;;8.00;;
4756;SDS011;2392;52.578;13.426;2022-09-09T04:23:33;7.80;;;7.00;;
4756;SDS011;2392;52.578;13.426;2022-09-09T04:26:01;8.90;;;8.00;;
4756;SDS011;2392;52.578;13.426;2022-09-09T04:28:32;7.10;;;6.50;;
4756;SDS011;2392;52.578;13.426;2022-09-09T04:31:05;9.32;;;7.47;;
4756;SDS011;2392;52.578;13.426;2022-09-09T04:33:35;11.00;;;8.30;;
4756;SDS011;2392;52.578;13.426;2022-09-09T04:36:03;8.20;;;7.40;;
4756;SDS011;2392;52.578;13.426;2022-09-09T04:38:32;8.13;;;7.33;;
4756;SDS011;2392;52.578;13.426;2022-09-09T04:41:00;8.23;;;7.43;;
4756;SDS011;2392;52.578;13.426;2022-09-09T04:43:27;8.00;;;7.20;;
4756;SDS011;2392;52.578;13.426;2022-09-09T04:45:56;9.50;;;8.60;;
4756;SDS011;2392;52.578;13.426;2022-09-09T04:48:24;7.30;;;6.70;;
4756;SDS011;2392;52.578;13.426;2022-09-09T04:50:56;7.80;;;7.10;;
4756;SDS011;2392;52.578;13.426;2022-09-09T04:53:24;9.50;;;8.00;;
4756;SDS011;2392;52.578;13.426;2022-09-09T04:56:00;7.27;;;6.67;;
4756;SDS011;2392;52.578;13.426;2022-09-09T04:58:29;8.30;;;7.60;;
4756;SDS011;2392;52.578;13.426;2022-09-09T05:01:02;12.77;;;7.90;;
4756;SDS011;2392;52.578;13.426;2022-09-09T05:03:30;7.47;;;6.57;;
4756;SDS011;2392;52.578;13.426;2022-09-09T05:06:01;10.27;;;8.23;;
4756;SDS011;2392;52.578;13.426;2022-09-09T05:08:30;8.83;;;7.90;;
4756;SDS011;2392;52.578;13.426;2022-09-09T05:10:59;8.97;;;8.03;;
4756;SDS011;2392;52.578;13.426;2022-09-09T05:13:26;10.90;;;8.87;;
4756;SDS011;2392;52.578;13.426;2022-09-09T05:15:53;7.80;;;6.30;;
4756;SDS011;2392;52.578;13.426;2022-09-09T05:18:21;8.73;;;7.93;;
4756;SDS011;2392;52.578;13.426;2022-09-09T05:20:48;9.90;;;7.17;;
4756;SDS011;2392;52.578;13.426;2022-09-09T05:23:16;9.20;;;8.30;;
4756;SDS011;2392;52.578;13.426;2022-09-09T05:25:43;8.50;;;7.43;;
4756;SDS011;2392;52.578;13.426;2022-09-09T05:28:21;7.23;;;6.00;;
4756;SDS011;2392;52.578;13.426;2022-09-09T05:30:54;10.17;;;8.63;;
4756;SDS011;2392;52.578;13.426;2022-09-09T05:33:23;7.80;;;7.00;;
4756;SDS011;2392;52.578;13.426;2022-09-09T05:35:55;15.30;;;7.50;;
4756;SDS011;2392;52.578;13.426;2022-09-09T05:38:22;8.33;;;7.53;;
4756;SDS011;2392;52.578;13.426;2022-09-09T05:40:51;10.47;;;7.70;;
4756;SDS011;2392;52.578;13.426;2022-09-09T05:43:18;11.93;;;7.30;;
4756;SDS011;2392;52.578;13.426;2022-09-09T05:45:47;10.80;;;7.30;;
4756;SDS011;2392;52.578;13.426;2022-09-09T05:48:14;9.37;;;7.90;;
4756;SDS011;2392;52.578;13.426;2022-09-09T05:50:41;8.00;;;6.60;;
4756;SDS011;2392;52.578;13.426;2022-09-09T05:53:10;6.33;;;5.80;;
4756;SDS011;2392;52.578;13.426;2022-09-09T05:55:37;7.23;;;6.10;;
4756;SDS011;2392;52.578;13.426;2022-09-09T05:58:04;9.87;;;5.90;;
4756;SDS011;2392;52.578;13.426;2022-09-09T06:00:31;6.90;;;5.20;;
4756;SDS011;2392;52.578;13.426;2022-09-09T06:02:59;8.97;;;6.00;;
4756;SDS011;2392;52.578;13.426;2022-09-09T06:05:26;5.47;;;5.03;;
4756;SDS011;2392;52.578;13.426;2022-09-09T06:07:53;6.90;;;6.20;;
4756;SDS011;2392;52.578;13.426;2022-09-09T06:10:21;12.27;;;5.00;;
4756;SDS011;2392;52.578;13.426;2022-09-09T06:12:48;8.87;;;5.57;;
4756;SDS011;2392;52.578;13.426;2022-09-09T06:15:18;7.67;;;5.77;;
4756;SDS011;2392;52.578;13.426;2022-09-09T06:17:45;7.53;;;5.27;;
4756;SDS011;2392;52.578;13.426;2022-09-09T06:20:13;8.80;;;5.57;;
4756;SDS011;2392;52.578;13.426;2022-09-09T06:22:41;13.70;;;4.93;;
4756;SDS011;2392;52.578;13.426;2022-09-09T06:25:08;6.17;;;5.07;;
4756;SDS011;2392;52.578;13.426;2022-09-09T06:27:37;7.10;;;5.17;;
4756;SDS011;2392;52.578;13.426;2022-09-09T06:30:05;9.20;;;5.00;;
4756;SDS011;2392;52.578;13.426;2022-09-09T06:32:32;5.77;;;5.27;;
4756;SDS011;2392;52.578;13.426;2022-09-09T06:35:01;7.13;;;4.47;;
4756;SDS011;2392;52.578;13.426;2022-09-09T06:37:29;5.10;;;4.50;;
4756;SDS011;2392;52.578;13.426;2022-09-09T06:39:57;7.70;;;4.93;;
4756;SDS011;2392;52.578;13.426;2022-09-09T06:42:23;5.63;;;4.90;;
4756;SDS011;2392;52.578;13.426;2022-09-09T06:45:02;6.33;;;4.10;;
4756;SDS011;2392;52.578;13.426;2022-09-09T06:47:38;7.20;;;4.47;;
4756;SDS011;2392;52.578;13.426;2022-09-09T06:50:06;6.97;;;4.77;;
4756;SDS011;2392;52.578;13.426;2022-09-09T06:52:35;8.47;;;4.57;;
4756;SDS011;2392;52.578;13.426;2022-09-09T06:55:03;7.17;;;4.27;;
4756;SDS011;2392;52.578;13.426;2022-09-09T06:57:32;5.80;;;4.27;;
4756;SDS011;2392;52.578;13.426;2022-09-09T06:59:59;6.50;;;4.40;;
4756;SDS011;2392;52.578;13.426;2022-09-09T07:02:27;4.93;;;4.00;;
4756;SDS011;2392;52.578;13.426;2022-09-09T07:04:54;6.83;;;3.77;;
4756;SDS011;2392;52.578;13.426;2022-09-09T07:07:22;5.73;;;4.20;;
4756;SDS011;2392;52.578;13.426;2022-09-09T07:09:52;7.40;;;3.80;;
4756;SDS011;2392;52.578;13.426;2022-09-09T07:12:19;4.40;;;3.70;;
4756;SDS011;2392;52.578;13.426;2022-09-09T07:14:53;5.50;;;4.00;;
4756;SDS011;2392;52.578;13.426;2022-09-09T07:17:21;8.63;;;4.20;;
4756;SDS011;2392;52.578;13.426;2022-09-09T07:19:48;4.20;;;3.27;;
4756;SDS011;2392;52.578;13.426;2022-09-09T07:22:16;6.30;;;3.20;;
4756;SDS011;2392;52.578;13.426;2022-09-09T07:24:44;8.83;;;3.17;;
4756;SDS011;2392;52.578;13.426;2022-09-09T07:27:15;3.40;;;3.10;;
4756;SDS011;2392;52.578;13.426;2022-09-09T07:29:42;7.83;;;3.23;;
4756;SDS011;2392;52.578;13.426;2022-09-09T07:32:11;11.03;;;3.43;;
4756;SDS011;2392;52.578;13.426;2022-09-09T07:34:38;2.90;;;2.70;;
4756;SDS011;2392;52.578;13.426;2022-09-09T07:37:05;6.33;;;3.40;;
4756;SDS011;2392;52.578;13.426;2022-09-09T07:39:34;7.67;;;3.00;;
4756;SDS011;2392;52.578;13.426;2022-09-09T07:42:01;5.23;;;2.70;;
4756;SDS011;2392;52.578;13.426;2022-09-09T07:44:31;7.83;;;3.07;;
4756;SDS011;2392;52.578;13.426;2022-09-09T07:47:07;10.70;;;2.90;;
4756;SDS011;2392;52.578;13.426;2022-09-09T07:49:38;6.13;;;3.10;;
4756;SDS011;2392;52.578;13.426;2022-09-09T07:52:07;6.67;;;2.90;;
4756;SDS011;2392;52.578;13.426;2022-09-09T07:54:35;7.10;;;3.13;;
4756;SDS011;2392;52.578;13.426;2022-09-09T07:57:04;3.30;;;2.77;;
4756;SDS011;2392;52.578;13.426;2022-09-09T07:59:35;4.13;;;2.23;;
4756;SDS011;2392;52.578;13.426;2022-09-09T08:02:03;5.47;;;2.20;;
4756;SDS011;2392;52.578;13.426;2022-09-09T08:04:32;6.20;;;2.80;;
4756;SDS011;2392;52.578;13.426;2022-09-09T08:07:00;4.83;;;2.17;;
4756;SDS011;2392;52.578;13.426;2022-09-09T08:09:32;6.77;;;2.43;;
4756;SDS011;2392;52.578;13.426;2022-09-09T08:12:08;4.90;;;2.10;;
4756;SDS011;2392;52.578;13.426;2022-09-09T08:14:39;3.93;;;2.77;;
4756;SDS011;2392;52.578;13.426;2022-09-09T08:17:06;6.10;;;2.20;;
4756;SDS011;2392;52.578;13.426;2022-09-09T08:19:33;6.73;;;2.30;;
4756;SDS011;2392;52.578;13.426;2022-09-09T08:22:02;5.60;;;2.23;;
4756;SDS011;2392;52.578;13.426;2022-09-09T08:24:32;5.60;;;2.17;;
4756;SDS011;2392;52.578;13.426;2022-09-09T08:26:59;6.43;;;2.53;;
4756;SDS011;2392;52.578;13.426;2022-09-09T08:29:26;3.30;;;1.90;;
4756;SDS011;2392;52.578;13.426;2022-09-09T08:31:56;2.60;;;2.00;;
4756;SDS011;2392;52.578;13.426;2022-09-09T08:34:26;2.03;;;1.83;;
4756;SDS011;2392;52.578;13.426;2022-09-09T08:36:56;6.10;;;2.17;;
4756;SDS011;2392;52.578;13.426;2022-09-09T08:39:29;3.00;;;1.97;;
4756;SDS011;2392;52.578;13.426;2022-09-09T08:42:06;4.30;;;1.67;;
4756;SDS011;2392;52.578;13.426;2022-09-09T08:44:51;3.50;;;1.90;;
4756;SDS011;2392;52.578;13.426;2022-09-09T08:47:30;4.27;;;2.03;;
4756;SDS011;2392;52.578;13.426;2022-09-09T08:50:12;3.43;;;2.20;;
4756;SDS011;2392;52.578;13.426;2022-09-09T08:52:47;3.20;;;2.07;;
4756;SDS011;2392;52.578;13.426;2022-09-09T08:55:24;9.20;;;3.27;;
4756;SDS011;2392;52.578;13.426;2022-09-09T08:57:58;3.70;;;2.20;;
4756;SDS011;2392;52.578;13.426;2022-09-09T09:00:31;4.77;;;2.07;;
4756;SDS011;2392;52.578;13.426;2022-09-09T09:03:08;4.70;;;2.20;;
4756;SDS011;2392;52.578;13.426;2022-09-09T09:05:44;3.13;;;1.73;;
4756;SDS011;2392;52.578;13.426;2022-09-09T09:08:17;2.47;;;2.27;;
4756;SDS011;2392;52.578;13.426;2022-09-09T09:10:54;3.43;;;2.10;;
4756;SDS011;2392;52.578;13.426;2022-09-09T09:13:26;3.30;;;1.90;;
4756;SDS011;2392;52.578;13.426;2022-09-09T09:16:03;6.57;;;2.10;;
4756;SDS011;2392;52.578;13.426;2022-09-09T09:18:40;4.27;;;1.57;;
4756;SDS011;2392;52.578;13.426;2022-09-09T09:21:08;2.80;;;1.80;;
4756;SDS011;2392;52.578;13.426;2022-09-09T09:23:43;2.97;;;1.50;;
4756;SDS011;2392;52.578;13.426;2022-09-09T09:26:16;2.53;;;1.97;;
4756;SDS011;2392;52.578;13.426;2022-09-09T09:28:44;2.93;;;2.13;;
4756;SDS011;2392;52.578;13.426;2022-09-09T09:31:15;6.10;;;2.37;;
4756;SDS011;2392;52.578;13.426;2022-09-09T09:33:48;2.73;;;2.33;;
4756;SDS011;2392;52.578;13.426;2022-09-09T09:36:19;4.10;;;1.93;;
4756;SDS011;2392;52.578;13.426;2022-09-09T09:38:51;5.50;;;2.23;;
4756;SDS011;2392;52.578;13.426;2022-09-09T09:41:31;3.90;;;2.47;;
4756;SDS011;2392;52.578;13.426;2022-09-09T09:44:00;3.97;;;2.47;;
4756;SDS011;2392;52.578;13.426;2022-09-09T09:46:28;4.23;;;2.20;;
4756;SDS011;2392;52.578;13.426;2022-09-09T09:49:09;2.90;;;1.90;;
4756;SDS011;2392;52.578;13.426;2022-09-09T09:51:38;7.87;;;1.97;;
4756;SDS011;2392;52.578;13.426;2022-09-09T09:54:08;8.90;;;2.47;;
4756;SDS011;2392;52.578;13.426;2022-09-09T09:56:44;6.90;;;2.40;;
4756;SDS011;2392;52.578;13.426;2022-09-09T09:59:20;4.60;;;1.90;;
4756;SDS011;2392;52.578;13.426;2022-09-09T10:01:48;4.60;;;2.37;;
4756;SDS011;2392;52.578;13.426;2022-09-09T10:04:17;4.93;;;1.70;;
4756;SDS011;2392;52.578;13.426;2022-09-09T10:06:46;3.37;;;1.83;;
4756;SDS011;2392;52.578;13.426;2022-09-09T10:09:21;3.20;;;1.40;;
4756;SDS011;2392;52.578;13.426;2022-09-09T10:11:52;5.70;;;2.90;;
4756;SDS011;2392;52.578;13.426;2022-09-09T10:14:30;2.67;;;1.80;;
4756;SDS011;2392;52.578;13.426;2022-09-09T10:17:08;3.30;;;1.50;;
4756;SDS011;2392;52.578;13.426;2022-09-09T10:19:47;4.37;;;2.13;;
4756;SDS011;2392;52.578;13.426;2022-09-09T10:22:27;7.53;;;1.90;;
4756;SDS011;2392;52.578;13.426;2022-09-09T10:25:01;3.10;;;1.60;;
4756;SDS011;2392;52.578;13.426;2022-09-09T10:27:42;5.40;;;1.50;;
4756;SDS011;2392;52.578;13.426;2022-09-09T10:30:19;2.50;;;1.77;;
4756;SDS011;2392;52.578;13.426;2022-09-09T10:32:49;3.27;;;1.97;;
4756;SDS011;2392;52.578;13.426;2022-09-09T10:35:25;5.53;;;4.40;;
4756;SDS011;2392;52.578;13.426;2022-09-09T10:38:11;5.60;;;1.80;;
4756;SDS011;2392;52.578;13.426;2022-09-09T10:40:43;2.20;;;1.50;;
4756;SDS011;2392;52.578;13.426;2022-09-09T10:43:20;3.70;;;1.93;;
4756;SDS011;2392;52.578;13.426;2022-09-09T10:45:55;3.27;;;1.50;;
4756;SDS011;2392;52.578;13.426;2022-09-09T10:48:36;4.30;;;2.27;;
4756;SDS011;2392;52.578;13.426;2022-09-09T10:51:25;4.17;;;1.80;;
4756;SDS011;2392;52.578;13.426;2022-09-09T10:54:04;5.53;;;1.70;;
4756;SDS011;2392;52.578;13.426;2022-09-09T10:56:44;1.90;;;1.70;;
4756;SDS011;2392;52.578;13.426;2022-09-09T10:59:16;6.10;;;1.63;;
4756;SDS011;2392;52.578;13.426;2022-09-09T11:01:49;3.63;;;1.60;;
4756;SDS011;2392;52.578;13.426;2022-09-09T11:04:22;5.60;;;1.90;;
4756;SDS011;2392;52.578;13.426;2022-09-09T11:06:54;8.80;;;1.90;;
4756;SDS011;2392;52.578;13.426;2022-09-09T11:09:22;2.50;;;1.53;;
4756;SDS011;2392;52.578;13.426;2022-09-09T11:11:54;3.03;;;1.87;;
4756;SDS011;2392;52.578;13.426;2022-09-09T11:14:24;4.20;;;1.30;;
4756;SDS011;2392;52.578;13.426;2022-09-09T11:16:57;2.33;;;1.27;;
4756;SDS011;2392;52.578;13.426;2022-09-09T11:19:27;2.63;;;1.30;;
4756;SDS011;2392;52.578;13.426;2022-09-09T11:22:02;4.83;;;1.57;;
4756;SDS011;2392;52.578;13.426;2022-09-09T11:24:35;2.03;;;1.30;;
4756;SDS011;2392;52.578;13.426;2022-09-09T11:27:07;1.13;;;1.00;;
4756;SDS011;2392;52.578;13.426;2022-09-09T11:29:49;4.53;;;1.70;;
4756;SDS011;2392;52.578;13.426;2022-09-09T11:32:34;3.30;;;1.37;;
4756;SDS011;2392;52.578;13.426;2022-09-09T11:35:22;1.60;;;1.40;;
4756;SDS011;2392;52.578;13.426;2022-09-09T11:38:05;3.53;;;1.30;;
4756;SDS011;2392;52.578;13.426;2022-09-09T11:40:43;2.13;;;1.57;;
4756;SDS011;2392;52.578;13.426;2022-09-09T11:43:12;2.80;;;1.20;;
4756;SDS011;2392;52.578;13.426;2022-09-09T11:45:42;4.73;;;1.37;;
4756;SDS011;2392;52.578;13.426;2022-09-09T11:48:22;3.97;;;1.83;;
4756;SDS011;2392;52.578;13.426;2022-09-09T11:50:57;6.43;;;1.53;;
4756;SDS011;2392;52.578;13.426;2022-09-09T11:53:26;2.17;;;1.60;;
4756;SDS011;2392;52.578;13.426;2022-09-09T11:56:00;5.40;;;1.40;;
4756;SDS011;2392;52.578;13.426;2022-09-09T11:58:40;7.93;;;1.80;;
4756;SDS011;2392;52.578;13.426;2022-09-09T12:04:09;4.03;;;2.00;;
4756;SDS011;2392;52.578;13.426;2022-09-09T12:06:44;2.00;;;1.30;;
4756;SDS011;2392;52.578;13.426;2022-09-09T12:09:20;3.97;;;1.63;;
4756;SDS011;2392;52.578;13.426;2022-09-09T12:11:51;4.33;;;1.57;;
4756;SDS011;2392;52.578;13.426;2022-09-09T12:14:21;4.00;;;1.20;;
4756;SDS011;2392;52.578;13.426;2022-09-09T12:17:08;4.10;;;1.60;;
4756;SDS011;2392;52.578;13.426;2022-09-09T12:19:36;3.80;;;1.40;;
4756;SDS011;2392;52.578;13.426;2022-09-09T12:22:04;5.20;;;1.63;;
4756;SDS011;2392;52.578;13.426;2022-09-09T12:24:40;2.20;;;1.33;;
4756;SDS011;2392;52.578;13.426;2022-09-09T12:27:12;2.63;;;1.57;;
4756;SDS011;2392;52.578;13.426;2022-09-09T12:29:46;6.87;;;1.30;;
4756;SDS011;2392;52.578;13.426;2022-09-09T12:32:20;1.90;;;1.20;;
4756;SDS011;2392;52.578;13.426;2022-09-09T12:34:52;6.83;;;1.57;;
4756;SDS011;2392;52.578;13.426;2022-09-09T12:37:24;4.40;;;1.47;;
4756;SDS011;2392;52.578;13.426;2022-09-09T12:39:58;9.77;;;1.33;;
4756;SDS011;2392;52.578;13.426;2022-09-09T12:42:27;3.87;;;1.63;;
4756;SDS011;2392;52.578;13.426;2022-09-09T12:44:55;1.63;;;1.20;;
4756;SDS011;2392;52.578;13.426;2022-09-09T12:47:25;3.83;;;1.50;;
4756;SDS011;2392;52.578;13.426;2022-09-09T12:49:57;1.40;;;1.20;;
4756;SDS011;2392;52.578;13.426;2022-09-09T12:52:26;4.50;;;1.23;;
4756;SDS011;2392;52.578;13.426;2022-09-09T12:54:57;1.73;;;1.00;;
4756;SDS011;2392;52.578;13.426;2022-09-09T12:57:26;3.10;;;1.20;;
4756;SDS011;2392;52.578;13.426;2022-09-09T13:00:04;2.50;;;1.17;;
4756;SDS011;2392;52.578;13.426;2022-09-09T13:02:35;2.10;;;1.27;;
4756;SDS011;2392;52.578;13.426;2022-09-09T13:05:13;2.87;;;1.50;;
4756;SDS011;2392;52.578;13.426;2022-09-09T13:07:43;1.90;;;1.33;;
4756;SDS011;2392;52.578;13.426;2022-09-09T13:10:12;2.43;;;0.97;;
4756;SDS011;2392;52.578;13.426;2022-09-09T13:12:40;2.07;;;1.30;;
4756;SDS011;2392;52.578;13.426;2022-09-09T13:15:14;4.70;;;1.30;;
4756;SDS011;2392;52.578;13.426;2022-09-09T13:17:54;1.07;;;0.97;;
4756;SDS011;2392;52.578;13.426;2022-09-09T13:20:23;1.70;;;1.10;;
4756;SDS011;2392;52.578;13.426;2022-09-09T13:22:51;2.40;;;1.20;;
4756;SDS011;2392;52.578;13.426;2022-09-09T13:25:25;3.07;;;1.30;;
4756;SDS011;2392;52.578;13.426;2022-09-09T13:27:54;3.40;;;1.43;;
4756;SDS011;2392;52.578;13.426;2022-09-09T13:30:24;4.80;;;1.57;;
4756;SDS011;2392;52.578;13.426;2022-09-09T13:33:03;4.47;;;2.80;;
4756;SDS011;2392;52.578;13.426;2022-09-09T13:35:46;4.57;;;1.27;;
4756;SDS011;2392;52.578;13.426;2022-09-09T13:38:15;4.27;;;1.40;;
4756;SDS011;2392;52.578;13.426;2022-09-09T13:40:52;2.67;;;1.37;;
4756;SDS011;2392;52.578;13.426;2022-09-09T13:43:22;3.47;;;1.50;;
4756;SDS011;2392;52.578;13.426;2022-09-09T13:45:55;3.50;;;1.40;;
4756;SDS011;2392;52.578;13.426;2022-09-09T13:48:23;4.37;;;1.17;;
4756;SDS011;2392;52.578;13.426;2022-09-09T13:50:54;3.90;;;1.30;;
4756;SDS011;2392;52.578;13.426;2022-09-09T13:53:22;7.03;;;1.20;;
4756;SDS011;2392;52.578;13.426;2022-09-09T13:55:49;1.60;;;1.30;;
4756;SDS011;2392;52.578;13.426;2022-09-09T13:58:18;1.90;;;1.23;;
4756;SDS011;2392;52.578;13.426;2022-09-09T14:00:46;4.60;;;1.10;;
4756;SDS011;2392;52.578;13.426;2022-09-09T14:03:15;2.30;;;1.23;;
4756;SDS011;2392;52.578;13.426;2022-09-09T14:05:42;5.60;;;1.30;;
4756;SDS011;2392;52.578;13.426;2022-09-09T14:08:12;1.73;;;1.63;;
4756;SDS011;2392;52.578;13.426;2022-09-09T14:10:46;2.53;;;1.00;;
4756;SDS011;2392;52.578;13.426;2022-09-09T14:13:13;3.60;;;1.33;;
4756;SDS011;2392;52.578;13.426;2022-09-09T14:15:42;3.20;;;1.23;;
4756;SDS011;2392;52.578;13.426;2022-09-09T14:18:09;2.03;;;1.23;;
4756;SDS011;2392;52.578;13.426;2022-09-09T14:20:39;1.50;;;0.93;;
4756;SDS011;2392;52.578;13.426;2022-09-09T14:23:08;3.30;;;1.50;;
4756;SDS011;2392;52.578;13.426;2022-09-09T14:25:39;3.20;;;1.40;;
4756;SDS011;2392;52.578;13.426;2022-09-09T14:28:07;3.10;;;1.60;;
4756;SDS011;2392;52.578;13.426;2022-09-09T14:30:37;2.60;;;1.30;;
4756;SDS011;2392;52.578;13.426;2022-09-09T14:33:06;4.10;;;1.20;;
4756;SDS011;2392;52.578;13.426;2022-09-09T14:35:33;2.20;;;1.60;;
4756;SDS011;2392;52.578;13.426;2022-09-09T14:38:01;5.80;;;1.20;;
4756;SDS011;2392;52.578;13.426;2022-09-09T14:40:29;0.97;;;0.97;;
4756;SDS011;2392;52.578;13.426;2022-09-09T14:42:55;2.37;;;0.90;;
4756;SDS011;2392;52.578;13.426;2022-09-09T14:45:23;1.43;;;1.10;;
4756;SDS011;2392;52.578;13.426;2022-09-09T14:47:51;1.80;;;1.00;;
4756;SDS011;2392;52.578;13.426;2022-09-09T14:50:20;4.03;;;1.63;;
4756;SDS011;2392;52.578;13.426;2022-09-09T14:52:48;2.00;;;1.10;;
4756;SDS011;2392;52.578;13.426;2022-09-09T14:55:16;6.57;;;1.67;;
4756;SDS011;2392;52.578;13.426;2022-09-09T14:57:43;3.60;;;1.50;;
4756;SDS011;2392;52.578;13.426;2022-09-09T15:00:10;3.13;;;1.20;;
4756;SDS011;2392;52.578;13.426;2022-09-09T15:02:38;2.87;;;1.47;;
4756;SDS011;2392;52.578;13.426;2022-09-09T15:05:05;3.60;;;1.60;;
4756;SDS011;2392;52.578;13.426;2022-09-09T15:07:34;5.10;;;1.33;;
4756;SDS011;2392;52.578;13.426;2022-09-09T15:10:02;4.33;;;1.60;;
4756;SDS011;2392;52.578;13.426;2022-09-09T15:12:29;1.77;;;1.20;;
4756;SDS011;2392;52.578;13.426;2022-09-09T15:14:56;1.80;;;1.17;;
4756;SDS011;2392;52.578;13.426;2022-09-09T15:17:23;3.70;;;1.47;;
4756;SDS011;2392;52.578;13.426;2022-09-09T15:19:52;5.67;;;1.23;;
4756;SDS011;2392;52.578;13.426;2022-09-09T15:22:20;4.30;;;1.30;;
4756;SDS011;2392;52.578;13.426;2022-09-09T15:24:48;2.70;;;1.47;;
4756;SDS011;2392;52.578;13.426;2022-09-09T15:27:15;2.93;;;1.67;;
4756;SDS011;2392;52.578;13.426;2022-09-09T15:29:43;4.43;;;1.30;;
4756;SDS011;2392;52.578;13.426;2022-09-09T15:32:10;2.70;;;1.20;;